createdAt,value
2022-08-09T00:01:42.864Z,102129.53
2022-08-09T00:04:35.068Z,102131.41
2022-08-09T00:07:03.771Z,102127.78
2022-08-09T00:09:37.538Z,102128.78
2022-08-09T00:12:05.096Z,102132.44
2022-08-09T00:14:37.994Z,102139.72
2022-08-09T00:17:05.400Z,102140.66
2022-08-09T00:19:31.993Z,102138.88
2022-08-09T00:22:00.880Z,102138.88
2022-08-09T00:24:31.953Z,102137.13
2022-08-09T00:27:00.219Z,102145.28
2022-08-09T00:30:16.626Z,102140.78
2022-08-09T00:32:26.532Z,102144.47
2022-08-09T00:34:55.375Z,102139.06
2022-08-09T00:37:22.107Z,102137.28
2022-08-09T00:40:13.333Z,102139.09
2022-08-09T00:44:14.163Z,102141.00
2022-08-09T00:45:24.408Z,102135.56
2022-08-09T00:47:52.477Z,102137.44
2022-08-09T00:50:22.325Z,102132.91
2022-08-09T00:52:50.134Z,102134.78
2022-08-09T00:56:03.831Z,102131.19
2022-08-09T00:58:05.875Z,102135.75
2022-08-09T01:00:35.280Z,102129.47
2022-08-09T01:03:22.259Z,102128.63
2022-08-09T01:06:03.954Z,102139.53
2022-08-09T01:09:02.483Z,102142.31
2022-08-09T01:11:58.469Z,102137.72
2022-08-09T01:14:32.521Z,102135.97
2022-08-09T01:17:10.975Z,102138.69
2022-08-09T01:20:01.821Z,102135.09
2022-08-09T01:24:01.273Z,102132.41
2022-08-09T01:26:16.294Z,102139.69
2022-08-09T01:28:52.173Z,102138.81
2022-08-09T01:32:29.459Z,102134.31
2022-08-09T01:34:19.514Z,102130.72
2022-08-09T01:36:51.605Z,102132.53
2022-08-09T01:39:23.685Z,102133.47
2022-08-09T01:41:55.656Z,102127.16
2022-08-09T01:44:29.793Z,102132.59
2022-08-09T01:46:59.928Z,102137.16
2022-08-09T01:49:31.963Z,102127.19
2022-08-09T01:52:15.197Z,102135.38
2022-08-09T01:54:54.922Z,102134.44
2022-08-09T01:57:40.305Z,102139.06
2022-08-09T02:00:34.987Z,102139.97
2022-08-09T02:03:02.942Z,102143.59
2022-08-09T02:05:38.032Z,102137.28
2022-08-09T02:08:38.673Z,102130.94
2022-08-09T02:11:16.700Z,102127.31
2022-08-09T02:14:07.360Z,102132.78
2022-08-09T02:16:53.276Z,102131.00
2022-08-09T02:19:22.755Z,102125.56
2022-08-09T02:21:55.618Z,102129.19
2022-08-09T02:24:28.095Z,102131.94
2022-08-09T02:27:00.426Z,102133.78
2022-08-09T02:29:31.380Z,102124.72
2022-08-09T02:32:03.826Z,102130.16
2022-08-09T02:34:41.712Z,102129.28
2022-08-09T02:37:22.248Z,102129.28
2022-08-09T02:40:01.859Z,102131.13
2022-08-09T02:42:39.573Z,102128.44
2022-08-09T02:45:13.463Z,102132.06
2022-08-09T02:47:46.369Z,102127.53
2022-08-09T02:50:42.358Z,102125.72
2022-08-09T02:53:26.396Z,102123.06
2022-08-09T02:55:59.070Z,102133.97
2022-08-09T02:58:36.396Z,102130.38
2022-08-09T03:01:08.066Z,102123.97
2022-08-09T03:04:13.252Z,102132.16
2022-08-09T03:06:27.499Z,102136.75
2022-08-09T03:08:56.191Z,102131.28
2022-08-09T03:11:30.084Z,102134.91
2022-08-09T03:14:13.307Z,102131.28
2022-08-09T03:16:47.575Z,102136.75
2022-08-09T03:19:57.812Z,102144.00
2022-08-09T03:22:12.086Z,102143.13
2022-08-09T03:25:05.633Z,102134.97
2022-08-09T03:27:45.094Z,102140.41
2022-08-09T03:30:13.567Z,102143.16
2022-08-09T03:32:43.076Z,102153.13
2022-08-09T03:35:24.475Z,102138.63
2022-08-09T03:37:55.471Z,102133.19
2022-08-09T03:40:24.530Z,102135.94
2022-08-09T03:42:51.659Z,102141.34
2022-08-09T03:46:13.527Z,102131.38
2022-08-09T03:48:07.053Z,102139.59
2022-08-09T03:50:36.256Z,102135.03
2022-08-09T03:53:06.081Z,102136.88
2022-08-09T03:58:21.431Z,102144.13
2022-08-09T04:00:48.965Z,102143.22
2022-08-09T04:03:24.988Z,102147.75
2022-08-09T04:06:04.583Z,102145.94
2022-08-09T04:08:32.334Z,102159.53
2022-08-09T04:11:01.687Z,102155.00
2022-08-09T04:14:37.627Z,102153.16
2022-08-09T04:16:19.290Z,102152.28
2022-08-09T04:18:49.262Z,102146.81
2022-08-09T04:21:18.358Z,102156.81
2022-08-09T04:23:54.552Z,102155.00
2022-08-09T04:26:24.729Z,102161.38
2022-08-09T04:29:07.852Z,102169.50
2022-08-09T04:31:46.667Z,102164.97
2022-08-09T04:34:14.287Z,102171.31
2022-08-09T04:36:50.210Z,102168.63
2022-08-09T04:39:17.647Z,102167.69
2022-08-09T04:41:44.441Z,102171.31
2022-08-09T04:44:12.502Z,102174.03
2022-08-09T04:46:59.580Z,102174.97
2022-08-09T04:49:52.939Z,102183.13
2022-08-09T04:52:26.638Z,102185.84
2022-08-09T04:54:59.525Z,102181.31
2022-08-09T04:57:58.301Z,102184.00
2022-08-09T05:00:14.190Z,102185.84
2022-08-09T05:02:44.184Z,102184.00
2022-08-09T05:05:31.402Z,102189.44
2022-08-09T05:08:01.955Z,102186.75
2022-08-09T05:10:28.514Z,102190.34
2022-08-09T05:12:55.346Z,102187.63
2022-08-09T05:15:24.627Z,102193.06
2022-08-09T05:18:50.461Z,102185.84
2022-08-09T05:20:52.835Z,102191.28
2022-08-09T05:23:57.103Z,102185.84
2022-08-09T05:26:09.714Z,102185.81
2022-08-09T05:28:53.388Z,102191.25
2022-08-09T05:31:37.045Z,102200.31
2022-08-09T05:34:16.402Z,102199.38
2022-08-09T05:36:44.203Z,102192.09
2022-08-09T05:39:28.927Z,102196.63
2022-08-09T05:42:01.630Z,102199.34
2022-08-09T05:44:34.605Z,102192.94
2022-08-09T05:47:05.664Z,102196.56
2022-08-09T05:50:25.968Z,102199.28
2022-08-09T05:52:20.410Z,102199.25
2022-08-09T05:54:49.163Z,102207.38
2022-08-09T05:57:17.661Z,102204.59
2022-08-09T05:59:46.194Z,102206.41
2022-08-09T06:02:16.986Z,102204.53
2022-08-09T06:04:46.164Z,102217.22
2022-08-09T06:07:21.042Z,102211.69
2022-08-09T06:09:59.871Z,102218.00
2022-08-09T06:12:29.268Z,102208.84
2022-08-09T06:15:00.707Z,102214.22
2022-08-09T06:17:40.004Z,102225.97
2022-08-09T06:20:08.766Z,102214.09
2022-08-09T06:22:35.810Z,102214.94
2022-08-09T06:25:03.573Z,102223.06
2022-08-09T06:27:42.044Z,102220.28
2022-08-09T06:30:13.889Z,102223.91
2022-08-09T06:32:53.182Z,102221.06
2022-08-09T06:35:35.843Z,102217.31
2022-08-09T06:38:13.654Z,102223.50
2022-08-09T06:40:42.585Z,102233.41
2022-08-09T06:43:10.587Z,102238.69
2022-08-09T06:46:06.056Z,102244.75
2022-08-09T06:48:26.357Z,102244.50
2022-08-09T06:50:58.901Z,102238.88
2022-08-09T06:53:25.486Z,102248.81
2022-08-09T06:55:52.572Z,102238.44
2022-08-09T06:58:40.805Z,102233.81
2022-08-09T07:01:08.047Z,102230.75
2022-08-09T07:03:39.485Z,102233.13
2022-08-09T07:06:18.428Z,102249.00
2022-08-09T07:08:49.647Z,102237.50
2022-08-09T07:11:23.822Z,102238.75
2022-08-09T07:14:05.263Z,102250.94
2022-08-09T07:16:42.256Z,102238.38
2022-08-09T07:19:15.742Z,102238.75
2022-08-09T07:21:55.826Z,102248.22
2022-08-09T07:24:40.580Z,102247.78
2022-08-09T07:27:33.287Z,102246.94
2022-08-09T07:30:01.511Z,102245.69
2022-08-09T07:32:33.594Z,102252.53
2022-08-09T07:35:10.116Z,102251.84
2022-08-09T07:37:42.860Z,102261.25
2022-08-09T07:40:16.266Z,102248.91
2022-08-09T07:42:59.787Z,102244.38
2022-08-09T07:45:37.428Z,102251.25
2022-08-09T07:48:07.425Z,102239.59
2022-08-09T07:53:36.518Z,102246.47
2022-08-09T07:56:26.866Z,102238.16
2022-08-09T07:58:55.539Z,102247.56
2022-08-09T08:01:34.041Z,102239.00
2022-08-09T08:04:02.867Z,102234.28
2022-08-09T08:06:32.590Z,102238.03
2022-08-09T08:09:05.390Z,102232.88
2022-08-09T08:12:09.715Z,102240.75
2022-08-09T08:14:24.241Z,102242.53
2022-08-09T08:17:00.988Z,102238.28
2022-08-09T08:19:34.793Z,102239.63
2022-08-09T08:22:02.769Z,102234.06
2022-08-09T08:24:40.300Z,102237.91
2022-08-09T08:27:16.555Z,102238.56
2022-08-09T08:29:48.614Z,102245.34
2022-08-09T08:32:24.354Z,102244.41
2022-08-09T08:34:58.923Z,102248.44
2022-08-09T08:37:40.811Z,102244.22
2022-08-09T08:40:09.758Z,102249.84
2022-08-09T08:42:38.122Z,102238.25
2022-08-09T08:45:13.536Z,102250.53
2022-08-09T08:47:43.368Z,102236.75
2022-08-09T08:50:16.189Z,102226.38
2022-08-09T08:52:59.386Z,102236.19
2022-08-09T08:55:28.159Z,102232.44
2022-08-09T08:57:56.734Z,102237.78
2022-08-09T09:00:29.814Z,102233.88
2022-08-09T09:03:08.245Z,102235.13
2022-08-09T09:05:58.840Z,102240.81
2022-08-09T09:08:31.124Z,102240.09
2022-08-09T09:11:03.937Z,102242.47
2022-08-09T09:13:55.097Z,102242.13
2022-08-09T09:16:35.117Z,102230.47
2022-08-09T09:22:03.769Z,102234.31
2022-08-09T09:24:38.210Z,102236.34
2022-08-09T09:27:09.249Z,102241.72
2022-08-09T09:32:36.350Z,102243.94
2022-08-09T09:35:10.001Z,102236.03
2022-08-09T09:37:40.414Z,102236.88
2022-08-09T09:40:09.166Z,102235.25
2022-08-09T09:42:36.244Z,102240.25
2022-08-09T09:45:08.294Z,102236.25
2022-08-09T09:47:42.148Z,102237.00
2022-08-09T09:50:17.141Z,102234.50
2022-08-09T09:52:56.153Z,102234.22
2022-08-09T09:55:31.405Z,102239.22
2022-08-09T09:58:19.204Z,102232.09
2022-08-09T10:00:53.768Z,102230.53
2022-08-09T10:03:40.144Z,102224.97
2022-08-09T10:06:07.236Z,102230.78
2022-08-09T10:08:43.104Z,102234.81
2022-08-09T10:12:00.816Z,102227.13
2022-08-09T10:14:27.309Z,102225.69
2022-08-09T10:17:17.684Z,102230.31
2022-08-09T10:19:45.706Z,102229.94
2022-08-09T10:22:12.722Z,102223.63
2022-08-09T10:24:40.549Z,102218.44
2022-08-09T10:27:10.309Z,102222.44
2022-08-09T10:30:27.250Z,102216.75
2022-08-09T10:32:42.727Z,102213.84
2022-08-09T10:35:10.406Z,102212.88
2022-08-09T10:37:44.133Z,102210.41
2022-08-09T10:40:33.458Z,102211.22
2022-08-09T10:43:00.067Z,102215.59
2022-08-09T10:45:31.904Z,102204.88
2022-08-09T10:48:13.349Z,102211.53
2022-08-09T10:51:14.671Z,102204.19
2022-08-09T10:53:55.124Z,102214.53
2022-08-09T10:56:26.511Z,102215.25
2022-08-09T10:58:55.550Z,102213.69
2022-08-09T11:03:14.734Z,102209.81
2022-08-09T11:04:30.381Z,102208.03
2022-08-09T11:07:00.240Z,102208.84
2022-08-09T11:09:53.590Z,102208.59
2022-08-09T11:12:29.754Z,102205.91
2022-08-09T11:15:02.791Z,102208.78
2022-08-09T11:17:31.142Z,102214.56
2022-08-09T11:20:10.760Z,102216.78
2022-08-09T11:22:55.290Z,102214.38
2022-08-09T11:25:36.034Z,102215.19
2022-08-09T11:28:54.388Z,102215.69
2022-08-09T11:31:49.091Z,102205.50
2022-08-09T11:34:25.213Z,102204.56
2022-08-09T11:36:59.032Z,102199.41
2022-08-09T11:39:25.814Z,102200.03
2022-08-09T11:42:08.628Z,102198.06
2022-08-09T11:44:46.334Z,102198.69
2022-08-09T11:47:14.514Z,102197.16
2022-08-09T11:50:54.885Z,102185.00
2022-08-09T11:53:58.484Z,102184.72
2022-08-09T11:56:02.334Z,102185.22
2022-08-09T11:58:33.019Z,102182.09
2022-08-09T12:01:15.586Z,102173.75
2022-08-09T12:04:07.128Z,102178.88
2022-08-09T12:06:37.296Z,102177.97
2022-08-09T12:09:15.304Z,102175.09
2022-08-09T12:12:11.972Z,102174.72
2022-08-09T12:15:03.857Z,102171.69
2022-08-09T12:17:34.612Z,102164.47
2022-08-09T12:20:22.219Z,102158.53
2022-08-09T12:22:59.888Z,102165.50
2022-08-09T12:25:37.140Z,102166.81
2022-08-09T12:29:13.166Z,102152.69
2022-08-09T12:31:30.856Z,102143.19
2022-08-09T12:34:05.927Z,102143.19
2022-08-09T12:36:34.081Z,102140.66
2022-08-09T12:39:04.300Z,102146.38
2022-08-09T12:41:39.575Z,102146.56
2022-08-09T12:44:10.272Z,102135.47
2022-08-09T12:46:49.288Z,102134.59
2022-08-09T12:49:20.892Z,102131.34
2022-08-09T12:52:02.722Z,102128.41
2022-08-09T12:55:03.098Z,102124.09
2022-08-09T12:57:46.607Z,102125.56
2022-08-09T13:00:25.485Z,102119.09
2022-08-09T13:03:00.938Z,102114.06
2022-08-09T13:06:13.115Z,102110.16
2022-08-09T13:08:39.520Z,102109.03
2022-08-09T13:11:13.074Z,102126.91
2022-08-09T13:14:43.893Z,102124.75
2022-08-09T13:16:52.387Z,102114.47
2022-08-09T13:20:07.088Z,102113.50
2022-08-09T13:22:37.826Z,102119.25
2022-08-09T13:25:14.705Z,102117.28
2022-08-09T13:27:48.669Z,102115.75
2022-08-09T13:30:50.065Z,102112.28
2022-08-09T13:33:24.554Z,102113.63
2022-08-09T13:36:38.449Z,102106.72
2022-08-09T13:39:00.886Z,102106.19
2022-08-09T13:41:58.265Z,102105.66
2022-08-09T13:44:17.698Z,102098.66
2022-08-09T13:47:26.849Z,102093.91
2022-08-09T13:49:38.030Z,102096.09
2022-08-09T13:52:08.979Z,102095.00
2022-08-09T13:54:36.605Z,102090.59
2022-08-09T13:57:14.462Z,102089.72
2022-08-09T13:59:59.912Z,102100.38
2022-08-09T14:02:42.299Z,102093.03
2022-08-09T14:06:00.477Z,102082.78
2022-08-09T14:08:13.323Z,102078.53
2022-08-09T14:10:49.474Z,102080.06
2022-08-09T14:14:14.841Z,102087.31
2022-08-09T14:16:14.917Z,102081.19
2022-08-09T14:18:45.891Z,102083.34
2022-08-09T14:21:22.636Z,102074.84
2022-08-09T14:23:54.642Z,102087.66
2022-08-09T14:26:32.580Z,102092.75
2022-08-09T14:29:03.397Z,102093.91
2022-08-09T14:31:49.818Z,102088.84
2022-08-09T14:34:31.585Z,102087.06
2022-08-09T14:37:07.576Z,102083.97
2022-08-09T14:39:46.134Z,102080.16
2022-08-09T14:42:30.530Z,102078.00
2022-08-09T14:45:14.812Z,102074.03
2022-08-09T14:47:49.630Z,102073.88
2022-08-09T14:50:27.047Z,102071.69
2022-08-09T14:52:53.726Z,102067.75
2022-08-09T14:55:23.659Z,102061.19
2022-08-09T14:57:50.300Z,102073.47
2022-08-09T15:00:17.843Z,102071.69
2022-08-09T15:02:47.268Z,102079.94
2022-08-09T15:05:16.267Z,102069.72
2022-08-09T15:07:45.623Z,102069.91
2022-08-09T15:10:25.344Z,102075.06
2022-08-09T15:12:53.618Z,102078.84
2022-08-09T15:15:21.254Z,102078.34
2022-08-09T15:17:52.485Z,102075.28
2022-08-09T15:21:55.663Z,102074.66
2022-08-09T15:24:02.029Z,102071.31
2022-08-09T15:25:57.395Z,102066.72
2022-08-09T15:28:28.400Z,102068.72
2022-08-09T15:31:13.170Z,102060.56
2022-08-09T15:34:15.472Z,102066.31
2022-08-09T15:36:30.696Z,102069.09
2022-08-09T15:39:00.142Z,102070.69
2022-08-09T15:41:31.291Z,102067.72
2022-08-09T15:44:02.790Z,102060.72
2022-08-09T15:46:33.001Z,102059.53
2022-08-09T15:49:21.109Z,102066.78
2022-08-09T15:52:03.773Z,102058.84
2022-08-09T15:54:46.346Z,102059.47
2022-08-09T15:57:34.172Z,102050.44
2022-08-09T16:00:14.298Z,102051.88
2022-08-09T16:02:43.681Z,102060.09
2022-08-09T16:05:22.087Z,102055.38
2022-08-09T16:07:51.668Z,102054.13
2022-08-09T16:10:54.966Z,102048.69
2022-08-09T16:13:20.710Z,102048.97
2022-08-09T16:16:11.262Z,102046.38
2022-08-09T16:18:44.656Z,102040.97
2022-08-09T16:21:17.284Z,102050.16
2022-08-09T16:23:58.771Z,102045.19
2022-08-09T16:26:35.528Z,102047.81
2022-08-09T16:29:12.508Z,102047.97
2022-08-09T16:32:19.577Z,102048.69
2022-08-09T16:34:55.759Z,102043.59
2022-08-09T16:37:53.162Z,102056.38
2022-08-09T16:40:11.382Z,102048.63
2022-08-09T16:42:39.164Z,102043.00
2022-08-09T16:45:19.690Z,102045.25
2022-08-09T16:48:39.160Z,102047.94
2022-08-09T16:50:38.421Z,102049.44
2022-08-09T16:53:05.601Z,102050.34
2022-08-09T16:55:59.923Z,102050.44
2022-08-09T16:58:19.541Z,102046.56
2022-08-09T17:00:48.819Z,102043.91
2022-08-09T17:03:21.731Z,102048.56
2022-08-09T17:06:07.238Z,102039.63
2022-08-09T17:08:43.336Z,102051.25
2022-08-09T17:11:41.303Z,102044.25
2022-08-09T17:14:16.235Z,102057.53
2022-08-09T17:17:03.562Z,102048.56
2022-08-09T17:19:47.592Z,102046.00
2022-08-09T17:22:30.874Z,102057.94
2022-08-09T17:25:02.566Z,102058.19
2022-08-09T17:27:34.929Z,102053.00
2022-08-09T17:30:06.806Z,102046.91
2022-08-09T17:32:37.991Z,102052.72
2022-08-09T17:35:11.285Z,102051.69
2022-08-09T17:38:12.906Z,102051.78
2022-08-09T17:40:27.324Z,102061.25
2022-08-09T17:42:59.865Z,102061.34
2022-08-09T17:46:03.321Z,102057.03
2022-08-09T17:48:29.396Z,102068.47
2022-08-09T17:50:59.251Z,102064.97
2022-08-09T17:53:27.562Z,102063.53
2022-08-09T17:56:03.276Z,102064.59
2022-08-09T17:58:34.520Z,102065.13
2022-08-09T18:01:01.432Z,102070.25
2022-08-09T18:03:30.414Z,102070.41
2022-08-09T18:06:00.936Z,102067.00
2022-08-09T18:08:28.528Z,102072.72
2022-08-09T18:11:01.511Z,102076.75
2022-08-09T18:13:43.175Z,102081.63
2022-08-09T18:16:17.366Z,102084.91
2022-08-09T18:18:57.197Z,102084.16
2022-08-09T18:21:26.036Z,102088.88
2022-08-09T18:24:11.115Z,102082.06
2022-08-09T18:26:46.902Z,102076.84
2022-08-09T18:30:39.732Z,102076.09
2022-08-09T18:32:04.930Z,102090.19
2022-08-09T18:34:35.143Z,102096.97
2022-08-09T18:37:10.215Z,102085.41
2022-08-09T18:39:39.616Z,102089.47
2022-08-09T18:42:08.993Z,102098.88
2022-08-09T18:44:36.025Z,102090.03
2022-08-09T18:47:07.426Z,102087.53
2022-08-09T18:49:41.644Z,102095.06
2022-08-09T18:52:14.170Z,102100.94
2022-08-09T18:54:52.493Z,102107.69
2022-08-09T18:57:22.342Z,102107.81
2022-08-09T18:59:55.482Z,102114.72
2022-08-09T19:02:32.578Z,102114.34
2022-08-09T19:05:19.907Z,102113.84
2022-08-09T19:08:04.787Z,102112.44
2022-08-09T19:10:39.635Z,102117.34
2022-08-09T19:13:19.687Z,102120.34
2022-08-09T19:15:49.949Z,102123.47
2022-08-09T19:18:34.064Z,102114.63
2022-08-09T19:21:09.353Z,102117.69
2022-08-09T19:24:37.274Z,102124.53
2022-08-09T19:26:29.591Z,102121.22
2022-08-09T19:29:02.590Z,102117.84
2022-08-09T19:31:44.029Z,102116.47
2022-08-09T19:34:21.237Z,102123.41
2022-08-09T19:37:00.018Z,102119.44
2022-08-09T19:39:43.539Z,102119.81
2022-08-09T19:42:19.166Z,102122.91
2022-08-09T19:44:50.557Z,102126.81
2022-08-09T19:47:22.601Z,102133.44
2022-08-09T19:50:09.091Z,102133.72
2022-08-09T19:52:37.637Z,102138.56
2022-08-09T19:55:30.915Z,102136.09
2022-08-09T19:58:16.143Z,102133.84
2022-08-09T20:00:45.413Z,102136.00
2022-08-09T20:04:07.162Z,102140.97
2022-08-09T20:05:59.609Z,102135.81
2022-08-09T20:08:34.770Z,102134.44
2022-08-09T20:11:04.340Z,102134.78
2022-08-09T20:13:37.142Z,102136.91
2022-08-09T20:16:35.459Z,102123.47
2022-08-09T20:19:41.859Z,102126.53
2022-08-09T20:21:56.103Z,102127.72
2022-08-09T20:24:31.919Z,102125.38
2022-08-09T20:27:02.477Z,102123.78
2022-08-09T20:29:37.502Z,102124.97
2022-08-09T20:32:30.615Z,102126.19
2022-08-09T20:34:58.763Z,102126.50
2022-08-09T20:37:25.875Z,102126.78
2022-08-09T20:40:19.146Z,102123.47
2022-08-09T20:42:59.521Z,102125.66
2022-08-09T20:45:56.530Z,102126.06
2022-08-09T20:48:21.284Z,102130.91
2022-08-09T20:50:50.329Z,102134.81
2022-08-09T20:53:36.414Z,102142.34
2022-08-09T20:56:20.557Z,102138.84
2022-08-09T20:58:54.552Z,102147.25
2022-08-09T21:01:35.444Z,102139.28
2022-08-09T21:05:52.812Z,102149.53
2022-08-09T21:07:12.150Z,102149.72
2022-08-09T21:09:56.808Z,102148.06
2022-08-09T21:15:23.792Z,102137.34
2022-08-09T21:18:21.742Z,102150.31
2022-08-09T21:20:53.840Z,102150.47
2022-08-09T21:23:21.396Z,102154.34
2022-08-09T21:25:59.511Z,102151.69
2022-08-09T21:28:34.247Z,102165.63
2022-08-09T21:31:16.130Z,102159.38
2022-08-09T21:33:51.327Z,102155.84
2022-08-09T21:36:28.216Z,102154.19
2022-08-09T21:38:58.628Z,102162.53
2022-08-09T21:42:04.049Z,102169.97
2022-08-09T21:44:34.672Z,102176.47
2022-08-09T21:47:08.665Z,102177.59
2022-08-09T21:49:39.530Z,102180.53
2022-08-09T21:52:17.591Z,102175.19
2022-08-09T21:55:02.953Z,102183.44
2022-08-09T21:57:38.551Z,102189.06
2022-08-09T22:00:32.489Z,102185.47
2022-08-09T22:03:06.289Z,102180.13
2022-08-09T22:05:41.886Z,102173.78
2022-08-09T22:08:12.792Z,102166.50
2022-08-09T22:11:04.785Z,102169.31
2022-08-09T22:13:31.379Z,102173.94
2022-08-09T22:16:01.023Z,102171.25
2022-08-09T22:18:32.930Z,102176.81
2022-08-09T22:21:00.936Z,102176.84
2022-08-09T22:23:35.091Z,102173.25
2022-08-09T22:26:06.707Z,102175.06
2022-08-09T22:28:47.237Z,102174.25
2022-08-09T22:31:20.927Z,102181.69
2022-08-09T22:33:55.390Z,102177.19
2022-08-09T22:36:22.547Z,102177.34
2022-08-09T22:38:49.387Z,102185.72
2022-08-09T22:41:16.394Z,102192.31
2022-08-09T22:44:02.467Z,102184.28
2022-08-09T22:48:17.009Z,102187.09
2022-08-09T22:49:17.535Z,102192.69
2022-08-09T22:51:56.374Z,102201.94
2022-08-09T22:54:23.558Z,102196.56
2022-08-09T22:56:56.458Z,102200.31
2022-08-09T22:59:55.714Z,102207.69
2022-08-09T23:02:10.648Z,102207.78
2022-08-09T23:04:42.412Z,102208.78
2022-08-09T23:08:22.699Z,102200.59
2022-08-09T23:10:14.410Z,102207.97
2022-08-09T23:12:41.085Z,102189.81
2022-08-09T23:15:07.979Z,102200.78
2022-08-09T23:17:34.946Z,102197.19
2022-08-09T23:20:07.731Z,102202.72
2022-08-09T23:22:35.796Z,102200.91
2022-08-09T23:25:04.669Z,102200.94
2022-08-09T23:27:32.188Z,102200.09
2022-08-09T23:29:59.427Z,102196.50
2022-08-09T23:32:26.020Z,102201.06
2022-08-09T23:34:52.598Z,102202.97
2022-08-09T23:37:21.574Z,102206.69
2022-08-09T23:39:58.206Z,102196.72
2022-08-09T23:42:26.366Z,102193.97
2022-08-09T23:44:53.060Z,102191.25
2022-08-09T23:47:19.682Z,102194.09
2022-08-09T23:49:46.394Z,102189.56
2022-08-09T23:52:13.032Z,102203.25
2022-08-09T23:54:44.444Z,102201.50
2022-08-09T23:57:12.114Z,102197.94
